This is the latest recevied weather packets stored in our database for station/object HP3ICC-22. If no packets are shown the sender has not sent any weather packets the latest 10 day(s).
| Time | Temp. | Humidity | Pressure | Rain* | Wind** | Luminosity | Snow |
|---|---|---|---|---|---|---|---|
| 1777953754 | 10.56° C | 78% | 1013 hPa | 0 mm | - | - | - |
| 1777952614 | 10° C | 85% | 1015 hPa | 0 mm | - | - | - |
| 1777952554 | 10° C | 85% | 1015 hPa | 0 mm | - | - | - |
| 1777951414 | 10.56° C | 78% | 1013 hPa | 0 mm | - | - | - |
| 1777951353 | 10.56° C | 78% | 1013 hPa | 0 mm | - | - | - |
| 1777950213 | 10° C | 86% | 1013 hPa | 0 mm | - | - | - |
| 1777950153 | 10° C | 86% | 1013 hPa | 0 mm | - | - | - |
| 1777949012 | 10.56° C | 78% | 1014 hPa | 0 mm | - | - | - |
| 1777948952 | 10.56° C | 78% | 1014 hPa | 0 mm | - | - | - |
| 1777947812 | 10° C | 84% | 1013 hPa | 0 mm | - | - | - |
| 1777947752 | 10° C | 84% | 1013 hPa | 0 mm | - | - | - |
| 1777946611 | 10° C | 80% | 1012 hPa | 0 mm | - | - | - |
| 1777946551 | 10° C | 80% | 1012 hPa | 0 mm | - | - | - |
| 1777945411 | 11.11° C | 78% | 1014 hPa | 0 mm | - | - | - |
| 1777945351 | 11.11° C | 78% | 1014 hPa | 0 mm | - | - | - |
| 1777944210 | 10.56° C | 82% | 1012 hPa | 0 mm | - | - | - |
| 1777944150 | 10.56° C | 82% | 1012 hPa | 0 mm | - | - | - |
| 1777943010 | 10.56° C | 82% | 1012 hPa | 0 mm | - | - | - |
| 1777942949 | 10.56° C | 82% | 1012 hPa | 0 mm | - | - | - |
| 1777941809 | 11.67° C | 82% | 1013 hPa | 0 mm | - | - | - |
| 1777941749 | 11.67° C | 82% | 1013 hPa | 0 mm | - | - | - |
| 1777940609 | 11.11° C | 80% | 1011 hPa | 0 mm | - | - | - |
| 1777940548 | 11.11° C | 80% | 1011 hPa | 0 mm | - | - | - |
| 1777939408 | 12.22° C | 79% | 1011 hPa | 0 mm | - | - | - |
| 1777939348 | 12.22° C | 79% | 1011 hPa | 0 mm | - | - | - |
* Rain latest hour (hover to see other rain measurements)
** Current wind speed in m/s (hover to see current wind gust speed)